Time;durP1;ratioP1;P1;durP2;ratioP2;P2;SDS_P1;SDS_P2;PMS_P1;PMS_P2;Temp;Humidity;BMP_temperature;BMP_pressure;BME280_temperature;BME280_humidity;BME280_pressure;Samples;Min_cycle;Max_cycle;Signal;HPM_P1;HPM_P2
2021/11/19 00:01:48;;;;;;;;;;;;;;;18.12;100.00;102691.25;5052813;28;19963;-54
2021/11/19 00:04:14;;;;;;;;;;;;;;;18.62;100.00;102691.03;5086047;28;19921;-55
2021/11/19 00:06:39;;;;;;;;;;;;;;;17.83;100.00;102695.84;5052853;28;19917;-50
2021/11/19 00:09:06;;;;;;;;;;;;;;;18.22;100.00;102698.16;5054165;28;20031;-49
2021/11/19 00:11:34;;;;;;;;;;;;;;;18.20;100.00;102690.25;5055875;28;20417;-52
2021/11/19 00:14:00;;;;;;;;;;;;;;;18.32;100.00;102688.59;5055776;28;19916;-52
2021/11/19 00:16:27;;;;;;;;;;;;;;;18.32;100.00;102680.47;5054999;28;19917;-53
2021/11/19 00:18:53;;;;;;;;;;;;;;;18.42;100.00;102680.09;5055864;28;19924;-51
2021/11/19 00:21:19;;;;;;;;;;;;;;;18.57;100.00;102679.97;5055737;28;19916;-52
2021/11/19 00:23:45;;;;;;;;;;;;;;;18.27;100.00;102679.44;5087776;28;20015;-50
2021/11/19 00:26:11;;;;;;;;;;;;;;;18.05;100.00;102679.56;5056039;28;20009;-51
2021/11/19 00:28:38;;;;;;;;;;;;;;;18.56;100.00;102688.28;5055340;28;19920;-52
2021/11/19 00:31:06;;;;;;;;;;;;;;;18.42;100.00;102684.69;5088026;28;19913;-51
2021/11/19 00:33:35;;;;;;;;;;;;;;;18.34;100.00;102696.53;5088608;28;19995;-51
2021/11/19 00:36:01;;;;;;;;;;;;;;;18.14;100.00;102686.47;5054793;28;19970;-51
2021/11/19 00:38:28;;;;;;;;;;;;;;;18.29;100.00;102699.84;5055660;28;19923;-50
2021/11/19 00:40:55;;;;;;;;;;;;;;;17.82;100.00;102694.19;5070493;28;19921;-52
2021/11/19 00:43:22;;;;;;;;;;;;;;;17.58;100.00;102699.03;5053998;28;20284;-49
2021/11/19 00:45:48;;;;;;;;;;;;;;;17.80;100.00;102693.56;5055748;28;19917;-52
2021/11/19 00:48:14;;;;;;;;;;;;;;;17.84;100.00;102696.69;5055541;28;19916;-55
2021/11/19 00:50:41;;;;;;;;;;;;;;;17.74;100.00;102700.59;5055544;28;20388;-53
2021/11/19 00:53:08;;;;;;;;;;;;;;;18.04;100.00;102686.00;5055622;28;19942;-53
2021/11/19 00:55:35;;;;;;;;;;;;;;;18.23;100.00;102689.84;5054584;28;19912;-54
2021/11/19 00:58:00;;;;;;;;;;;;;;;18.03;100.00;102701.41;5054244;28;19916;-54
2021/11/19 01:00:28;;;;;;;;;;;;;;;18.16;100.00;102695.22;5055247;28;19916;-53
2021/11/19 01:02:54;;;;;;;;;;;;;;;18.08;100.00;102706.22;5054039;28;19924;-49
2021/11/19 01:05:21;;;;;;;;;;;;;;;17.75;100.00;102704.97;5053935;28;19947;-53
2021/11/19 01:07:47;;;;;;;;;;;;;;;17.91;100.00;102711.91;5088052;28;19960;-51
2021/11/19 01:10:18;;;;;;;;;;;;;;;17.56;100.00;102700.25;5053797;28;19916;-53
2021/11/19 01:12:44;;;;;;;;;;;;;;;17.63;100.00;102707.38;5053926;28;20011;-52
2021/11/19 01:15:19;;;;;;;;;;;;;;;17.87;100.00;102713.38;5054722;28;19959;-53
2021/11/19 01:17:55;;;;;;;;;;;;;;;18.28;100.00;102703.59;5054796;28;19917;-50
2021/11/19 01:20:23;;;;;;;;;;;;;;;17.62;100.00;102696.75;5052729;28;20431;-53
2021/11/19 01:22:49;;;;;;;;;;;;;;;17.89;100.00;102699.66;5054173;28;19916;-53
2021/11/19 01:25:16;;;;;;;;;;;;;;;17.77;100.00;102696.66;5087571;28;19959;-53
2021/11/19 01:27:42;;;;;;;;;;;;;;;17.52;100.00;102694.38;5053776;28;19917;-53
2021/11/19 01:30:10;;;;;;;;;;;;;;;17.94;100.00;102702.59;5054721;28;20360;-48
2021/11/19 01:32:37;;;;;;;;;;;;;;;18.11;100.00;102703.09;5053851;28;19916;-51
2021/11/19 01:35:29;;;;;;;;;;;;;;;17.87;100.00;102704.41;5055055;28;19920;-52
2021/11/19 01:38:05;;;;;;;;;;;;;;;18.02;100.00;102702.44;5087210;28;19924;-51
2021/11/19 01:40:48;;;;;;;;;;;;;;;18.17;100.00;102699.59;5053723;28;19927;-50
2021/11/19 01:43:31;;;;;;;;;;;;;;;17.73;100.00;102700.78;5055175;28;20397;-52
2021/11/19 01:46:03;;;;;;;;;;;;;;;17.77;100.00;102692.06;5087075;28;19924;-50
2021/11/19 01:48:35;;;;;;;;;;;;;;;18.05;100.00;102696.63;5054979;28;19924;-51
2021/11/19 01:51:03;;;;;;;;;;;;;;;18.48;100.00;102692.84;5087211;28;19916;-56
2021/11/19 01:53:35;;;;;;;;;;;;;;;18.24;100.00;102690.69;5054047;28;19917;-51
2021/11/19 01:56:06;;;;;;;;;;;;;;;17.87;100.00;102705.25;5054351;28;19917;-54
2021/11/19 01:58:40;;;;;;;;;;;;;;;18.12;100.00;102688.53;5087009;28;19924;-51
2021/11/19 02:01:08;;;;;;;;;;;;;;;17.80;100.00;102698.97;5054085;28;20237;-53
2021/11/19 02:03:38;;;;;;;;;;;;;;;18.04;100.00;102686.81;5053387;28;19952;-51
2021/11/19 02:06:22;;;;;;;;;;;;;;;17.81;100.00;102694.38;5054532;28;19917;-53
2021/11/19 02:08:54;;;;;;;;;;;;;;;17.85;100.00;102690.22;5087139;28;19970;-51
2021/11/19 02:11:31;;;;;;;;;;;;;;;17.61;100.00;102690.50;5053166;28;19917;-54
2021/11/19 02:13:56;;;;;;;;;;;;;;;17.78;100.00;102682.09;5087175;28;19916;-54
2021/11/19 02:16:25;;;;;;;;;;;;;;;17.77;100.00;102691.25;5087049;28;19971;-54
2021/11/19 02:18:59;;;;;;;;;;;;;;;17.56;100.00;102678.59;5053750;28;19917;-54
2021/11/19 02:21:27;;;;;;;;;;;;;;;17.86;100.00;102678.38;5053868;28;19950;-54
2021/11/19 02:24:02;;;;;;;;;;;;;;;17.91;100.00;102678.63;5054462;28;19917;-53
2021/11/19 02:26:31;;;;;;;;;;;;;;;18.17;100.00;102691.47;5069925;28;19921;-55
2021/11/19 02:28:57;;;;;;;;;;;;;;;18.01;100.00;102672.84;5053173;28;19919;-55
2021/11/19 02:31:23;;;;;;;;;;;;;;;17.75;100.00;102682.47;5068967;28;19982;-52
2021/11/19 02:33:50;;;;;;;;;;;;;;;17.60;100.00;102677.16;5086426;28;19920;-54
2021/11/19 02:36:17;;;;;;;;;;;;;;;17.86;100.00;102684.63;5086475;28;19921;-54
2021/11/19 02:38:49;;;;;;;;;;;;;;;17.49;100.00;102673.13;5052919;28;20019;-54
2021/11/19 02:41:18;;;;;;;;;;;;;;;17.90;100.00;102674.25;5053776;28;19920;-50
2021/11/19 02:43:49;;;;;;;;;;;;;;;17.74;100.00;102670.81;5086636;28;19920;-54
2021/11/19 02:46:21;;;;;;;;;;;;;;;17.86;100.00;102673.81;5069699;28;20281;-55
2021/11/19 02:48:46;;;;;;;;;;;;;;;18.03;100.00;102671.63;5086998;28;20309;-54
2021/11/19 02:51:14;;;;;;;;;;;;;;;17.99;100.00;102678.44;5069176;28;19952;-52
2021/11/19 02:53:41;;;;;;;;;;;;;;;18.18;100.00;102682.31;5069524;28;19967;-55
2021/11/19 02:56:07;;;;;;;;;;;;;;;18.08;100.00;102673.75;5085822;28;19928;-54
2021/11/19 02:58:37;;;;;;;;;;;;;;;18.31;100.00;102664.47;5086651;28;19917;-55
2021/11/19 03:01:08;;;;;;;;;;;;;;;18.61;100.00;102669.53;5052399;28;19916;-51
2021/11/19 03:03:35;;;;;;;;;;;;;;;18.25;100.00;102665.28;5086032;28;19921;-51
2021/11/19 03:06:02;;;;;;;;;;;;;;;18.37;100.00;102666.34;5052934;28;19924;-49
2021/11/19 03:08:27;;;;;;;;;;;;;;;18.44;100.00;102671.78;5052329;28;19923;-49
2021/11/19 03:10:56;;;;;;;;;;;;;;;18.08;100.00;102664.75;5052271;28;19960;-50
2021/11/19 03:13:24;;;;;;;;;;;;;;;18.33;100.00;102668.63;5053687;28;19917;-54
2021/11/19 03:15:50;;;;;;;;;;;;;;;18.58;100.00;102665.38;5085798;28;20320;-53
2021/11/19 03:18:17;;;;;;;;;;;;;;;18.10;100.00;102663.53;5085773;28;19916;-55
2021/11/19 03:20:46;;;;;;;;;;;;;;;18.59;100.00;102666.19;5086587;28;20307;-49
2021/11/19 03:23:12;;;;;;;;;;;;;;;18.09;100.00;102669.13;5054386;28;19916;-55
2021/11/19 03:25:39;;;;;;;;;;;;;;;18.25;100.00;102667.97;5052112;28;19920;-56
2021/11/19 03:28:07;;;;;;;;;;;;;;;18.11;100.00;102665.22;5085713;28;19947;-51
2021/11/19 03:30:35;;;;;;;;;;;;;;;18.13;100.00;102665.03;5052232;28;19917;-55
2021/11/19 03:33:01;;;;;;;;;;;;;;;18.12;100.00;102653.34;5053438;28;19920;-55
2021/11/19 03:35:28;;;;;;;;;;;;;;;18.60;100.00;102667.88;5052152;28;19917;-56
2021/11/19 03:37:54;;;;;;;;;;;;;;;17.95;100.00;102654.69;5068556;28;19962;-55
2021/11/19 03:40:22;;;;;;;;;;;;;;;18.40;100.00;102665.13;5069056;28;19963;-54
2021/11/19 03:42:50;;;;;;;;;;;;;;;18.69;100.00;102674.78;5051959;28;20007;-55
2021/11/19 03:45:17;;;;;;;;;;;;;;;18.04;100.00;102662.47;5057081;28;20066;-52
2021/11/19 03:47:47;;;;;;;;;;;;;;;18.15;100.00;102661.06;5089300;28;20439;-60
2021/11/19 03:50:16;;;;;;;;;;;;;;;18.30;100.00;102657.38;5055976;28;20002;-50
2021/11/19 03:52:42;;;;;;;;;;;;;;;17.82;100.00;102666.28;5055919;28;20019;-52
2021/11/19 03:55:12;;;;;;;;;;;;;;;17.90;100.00;102666.94;5072528;28;19994;-52
2021/11/19 03:57:38;;;;;;;;;;;;;;;18.63;100.00;102671.00;5089269;28;19917;-55
2021/11/19 04:00:12;;;;;;;;;;;;;;;18.34;100.00;102669.47;5089344;28;19951;-58
2021/11/19 04:02:39;;;;;;;;;;;;;;;18.31;100.00;102675.28;5055777;28;19916;-53
2021/11/19 04:05:05;;;;;;;;;;;;;;;17.98;100.00;102665.09;5089486;28;19926;-55
2021/11/19 04:07:31;;;;;;;;;;;;;;;18.32;100.00;102676.97;5055500;28;19916;-56
2021/11/19 04:09:57;;;;;;;;;;;;;;;18.11;100.00;102665.22;5089620;28;19938;-56
2021/11/19 04:12:23;;;;;;;;;;;;;;;18.51;100.00;102682.66;5055211;28;19920;-53
2021/11/19 04:14:49;;;;;;;;;;;;;;;18.51;100.00;102675.34;5089151;28;19916;-52
2021/11/19 04:17:15;;;;;;;;;;;;;;;18.22;100.00;102679.19;5056442;28;20317;-56
2021/11/19 04:19:40;;;;;;;;;;;;;;;18.00;100.00;102676.59;5055349;28;20353;-53
2021/11/19 04:22:09;;;;;;;;;;;;;;;18.33;100.00;102670.50;5055667;28;20383;-55
2021/11/19 04:24:40;;;;;;;;;;;;;;;18.10;100.00;102674.38;5089493;28;19970;-56
2021/11/19 04:27:08;;;;;;;;;;;;;;;17.88;100.00;102671.72;5054873;28;19921;-51
2021/11/19 04:29:52;;;;;;;;;;;;;;;18.14;100.00;102669.41;5054940;28;19916;-52
2021/11/19 04:32:24;;;;;;;;;;;;;;;18.49;100.00;102682.84;5055354;28;19927;-54
2021/11/19 04:34:53;;;;;;;;;;;;;;;18.07;100.00;102674.78;5054813;28;19966;-55
2021/11/19 04:37:19;;;;;;;;;;;;;;;17.88;100.00;102682.56;5088134;28;19916;-54
2021/11/19 04:39:45;;;;;;;;;;;;;;;18.02;100.00;102672.66;5055307;28;19952;-55
2021/11/19 04:42:11;;;;;;;;;;;;;;;18.49;100.00;102683.69;5087982;28;19967;-53
2021/11/19 04:44:36;;;;;;;;;;;;;;;18.22;100.00;102679.19;5054630;28;20285;-55
2021/11/19 04:47:03;;;;;;;;;;;;;;;18.24;100.00;102672.56;5056902;28;19921;-55
2021/11/19 04:49:29;;;;;;;;;;;;;;;17.72;100.00;102677.44;5055311;28;20269;-53
2021/11/19 04:51:55;;;;;;;;;;;;;;;18.47;100.00;102680.34;5088211;28;20368;-54
2021/11/19 04:54:22;;;;;;;;;;;;;;;17.69;100.00;102678.69;5055465;28;19949;-53
2021/11/19 04:56:49;;;;;;;;;;;;;;;18.24;100.00;102682.56;5054740;28;19916;-50
2021/11/19 04:59:15;;;;;;;;;;;;;;;18.46;100.00;102686.81;5056206;28;19916;-54
2021/11/19 05:01:43;;;;;;;;;;;;;;;18.40;100.00;102684.91;5055654;28;19921;-56
2021/11/19 05:04:19;;;;;;;;;;;;;;;17.96;100.00;102678.00;5088833;28;19913;-54
2021/11/19 05:06:44;;;;;;;;;;;;;;;18.70;100.00;102681.88;5054724;28;20461;-51
2021/11/19 05:09:10;;;;;;;;;;;;;;;18.47;100.00;102680.34;5055501;28;19921;-51
2021/11/19 05:11:57;;;;;;;;;;;;;;;18.42;100.00;102685.53;5088451;28;19920;-56
2021/11/19 05:14:23;;;;;;;;;;;;;;;18.59;100.00;102687.88;5054120;28;19916;-56
2021/11/19 05:16:50;;;;;;;;;;;;;;;18.25;100.00;102681.53;5054513;28;19913;-53
2021/11/19 05:19:15;;;;;;;;;;;;;;;18.55;100.00;102681.19;5088306;28;19921;-54
2021/11/19 05:21:41;;;;;;;;;;;;;;;18.41;100.00;102681.16;5055333;28;20353;-53
2021/11/19 05:24:08;;;;;;;;;;;;;;;18.39;100.00;102682.41;5055785;28;19925;-53
2021/11/19 05:26:35;;;;;;;;;;;;;;;18.78;100.00;102686.25;5088023;28;20028;-53
2021/11/19 05:29:01;;;;;;;;;;;;;;;18.33;100.00;102684.88;5087419;28;19912;-56
2021/11/19 05:31:26;;;;;;;;;;;;;;;18.32;100.00;102683.19;5087674;28;20363;-51
2021/11/19 05:33:52;;;;;;;;;;;;;;;18.37;100.00;102685.31;5053951;28;19917;-55
2021/11/19 05:36:18;;;;;;;;;;;;;;;18.31;100.00;102695.06;5055461;28;19978;-56
2021/11/19 05:38:43;;;;;;;;;;;;;;;18.53;100.00;102688.69;5070548;28;19927;-52
2021/11/19 05:41:14;;;;;;;;;;;;;;;18.65;100.00;102676.22;5055186;28;19916;-51
2021/11/19 05:43:41;;;;;;;;;;;;;;;18.55;100.00;102673.06;5087010;28;19921;-54
2021/11/19 05:46:12;;;;;;;;;;;;;;;18.32;100.00;102664.22;5054560;28;19920;-49
2021/11/19 05:49:03;;;;;;;;;;;;;;;18.25;100.00;102668.81;5054692;28;20340;-51
2021/11/19 05:51:29;;;;;;;;;;;;;;;17.91;100.00;102665.91;5053599;28;19971;-51
2021/11/19 05:53:55;;;;;;;;;;;;;;;17.73;100.00;102668.31;5070037;28;20031;-56
2021/11/19 05:56:25;;;;;;;;;;;;;;;18.31;100.00;102678.00;5053893;28;20391;-56
2021/11/19 05:58:51;;;;;;;;;;;;;;;18.15;100.00;102666.47;5087206;28;19917;-53
2021/11/19 06:01:27;;;;;;;;;;;;;;;18.28;100.00;102681.94;5087419;28;19963;-54
2021/11/19 06:04:03;;;;;;;;;;;;;;;18.27;100.00;102674.84;5053934;28;20340;-55
2021/11/19 06:06:49;;;;;;;;;;;;;;;18.41;100.00;102675.72;5052979;28;19927;-53
2021/11/19 06:09:27;;;;;;;;;;;;;;;18.28;100.00;102671.09;5055250;28;20023;-57
2021/11/19 06:11:55;;;;;;;;;;;;;;;18.51;100.00;102672.63;5053281;28;20021;-52
2021/11/19 06:14:23;;;;;;;;;;;;;;;18.09;100.00;102678.13;5086562;28;19919;-54
2021/11/19 06:17:04;;;;;;;;;;;;;;;18.23;100.00;102683.59;5087514;28;20345;-54
2021/11/19 06:19:39;;;;;;;;;;;;;;;18.42;100.00;102679.28;5087607;28;19920;-51
2021/11/19 06:22:10;;;;;;;;;;;;;;;18.70;100.00;102679.16;5053565;28;20398;-50
2021/11/19 06:24:38;;;;;;;;;;;;;;;18.49;100.00;102678.28;5053225;28;20353;-54
2021/11/19 06:27:04;;;;;;;;;;;;;;;18.37;100.00;102685.31;5086363;28;19924;-56
2021/11/19 06:29:31;;;;;;;;;;;;;;;18.45;100.00;102687.00;5069465;28;19921;-53
2021/11/19 06:31:58;;;;;;;;;;;;;;;18.46;100.00;102686.81;5054047;28;19921;-56
2021/11/19 06:34:24;;;;;;;;;;;;;;;18.15;100.00;102680.00;5053170;28;19913;-53
2021/11/19 06:36:51;;;;;;;;;;;;;;;18.33;100.00;102687.56;5052842;28;19917;-54
2021/11/19 06:39:18;;;;;;;;;;;;;;;18.48;100.00;102692.00;5085994;28;19916;-54
2021/11/19 06:41:44;;;;;;;;;;;;;;;18.63;100.00;102691.84;5052545;28;19923;-52
2021/11/19 06:44:28;;;;;;;;;;;;;;;18.33;100.00;102692.16;5054067;28;19978;-54
2021/11/19 06:47:04;;;;;;;;;;;;;;;18.15;100.00;102704.38;5086495;28;19921;-51
2021/11/19 06:49:36;;;;;;;;;;;;;;;18.70;100.00;102700.00;5053650;28;19925;-54
2021/11/19 06:52:34;;;;;;;;;;;;;;;19.05;100.00;102702.59;5042014;28;19950;-54
2021/11/19 06:55:17;;;;;;;;;;;;;;;18.75;100.00;102709.19;5053681;28;19959;-55
2021/11/19 06:58:02;;;;;;;;;;;;;;;18.77;100.00;102715.22;5053734;28;19947;-57
2021/11/19 07:00:30;;;;;;;;;;;;;;;18.85;100.00;102707.94;5052781;28;19917;-55
2021/11/19 07:02:56;;;;;;;;;;;;;;;18.33;100.00;102705.72;5052953;28;19991;-56
2021/11/19 07:05:22;;;;;;;;;;;;;;;18.72;100.00;102709.59;5052410;28;19955;-55
2021/11/19 07:07:48;;;;;;;;;;;;;;;18.82;100.00;102716.50;5052267;28;19928;-55
2021/11/19 07:10:15;;;;;;;;;;;;;;;18.96;100.00;102718.19;5052630;28;20296;-53
2021/11/19 07:12:41;;;;;;;;;;;;;;;19.08;100.00;102729.28;5052565;28;19923;-56
2021/11/19 07:15:09;;;;;;;;;;;;;;;18.89;100.00;102729.03;5052358;28;20003;-54
2021/11/19 07:17:34;;;;;;;;;;;;;;;18.57;100.00;102723.31;5052252;28;19939;-53
2021/11/19 07:20:00;;;;;;;;;;;;;;;18.49;100.00;102727.03;5056176;28;20368;-52
2021/11/19 07:22:26;;;;;;;;;;;;;;;18.53;100.00;102724.72;5073054;28;20261;-49
2021/11/19 07:25:05;;;;;;;;;;;;;;;19.24;100.00;102728.06;5056590;28;20349;-52
2021/11/19 07:27:30;;;;;;;;;;;;;;;18.99;100.00;102725.94;5055949;28;19961;-50
2021/11/19 07:29:56;;;;;;;;;;;;;;;19.12;100.00;102737.84;5090055;28;19995;-48
2021/11/19 07:32:45;;;;;;;;;;;;;;;18.71;100.00;102732.31;5038402;28;19913;-52
2021/11/19 07:35:35;;;;;;;;;;;;;;;19.12;100.00;102746.81;5056085;28;19917;-53
2021/11/19 07:38:33;;;;;;;;;;;;;;;18.71;100.00;102740.44;5050773;28;20348;-56
2021/11/19 07:41:18;;;;;;;;;;;;;;;19.29;100.00;102749.97;5055775;28;19924;-52
2021/11/19 07:44:16;;;;;;;;;;;;;;;18.70;100.00;102749.63;5038435;28;19917;-52
2021/11/19 07:46:48;;;;;;;;;;;;;;;18.86;100.00;102756.53;5055718;28;19955;-54
2021/11/19 07:49:15;;;;;;;;;;;;;;;19.30;100.00;102753.53;5055887;28;19964;-53
2021/11/19 07:51:44;;;;;;;;;;;;;;;19.19;100.00;102757.69;5055296;28;20325;-54
2021/11/19 07:54:10;;;;;;;;;;;;;;;19.21;100.00;102766.44;5055274;28;20328;-55
2021/11/19 07:56:36;;;;;;;;;;;;;;;19.51;100.00;102766.03;5055525;28;19921;-53
2021/11/19 07:59:06;;;;;;;;;;;;;;;19.32;100.00;102768.53;5056252;28;20015;-55
2021/11/19 08:01:33;;;;;;;;;;;;;;;19.23;100.00;102768.94;5055763;28;19927;-55
2021/11/19 08:03:59;;;;;;;;;;;;;;;18.85;100.00;102773.00;5055560;28;19956;-51
2021/11/19 08:06:26;;;;;;;;;;;;;;;18.96;100.00;102769.72;5055453;28;19956;-54
2021/11/19 08:09:12;;;;;;;;;;;;;;;18.67;100.00;102766.25;5054792;28;19925;-56
2021/11/19 08:11:43;;;;;;;;;;;;;;;18.87;100.00;102777.19;5088728;28;19921;-56
2021/11/19 08:14:09;;;;;;;;;;;;;;;18.80;100.00;102779.03;5054701;28;19956;-54
2021/11/19 08:16:37;;;;;;;;;;;;;;;18.95;100.00;102778.03;5055304;28;19916;-56
2021/11/19 08:19:24;;;;;;;;;;;;;;;19.17;100.00;102776.03;5088237;28;20266;-49
2021/11/19 08:21:52;;;;;;;;;;;;;;;19.35;100.00;102772.72;5056254;28;19917;-55
2021/11/19 08:24:18;;;;;;;;;;;;;;;18.96;100.00;102768.84;5071382;28;19939;-55
2021/11/19 08:26:45;;;;;;;;;;;;;;;18.98;100.00;102775.78;5054976;28;19916;-54
2021/11/19 08:29:13;;;;;;;;;;;;;;;18.81;100.00;102766.31;5055361;28;19917;-51
2021/11/19 08:31:39;;;;;;;;;;;;;;;19.37;100.00;102758.91;5088638;28;19923;-51
2021/11/19 08:34:05;;;;;;;;;;;;;;;19.26;100.00;102774.78;5055635;28;19928;-53
2021/11/19 08:36:31;;;;;;;;;;;;;;;19.28;100.00;102767.28;5055259;28;19916;-55
2021/11/19 08:38:58;;;;;;;;;;;;;;;19.32;100.00;102768.53;5055517;28;19916;-56
2021/11/19 08:41:23;;;;;;;;;;;;;;;19.57;100.00;102770.63;5055681;28;19916;-55
2021/11/19 08:43:50;;;;;;;;;;;;;;;19.15;100.00;102788.97;5055557;28;19916;-57
2021/11/19 08:46:22;;;;;;;;;;;;;;;19.10;100.00;102775.16;5054510;28;19939;-56
2021/11/19 08:48:49;;;;;;;;;;;;;;;18.91;100.00;102775.72;5055905;28;19939;-56
2021/11/19 08:51:19;;;;;;;;;;;;;;;18.90;100.00;102781.34;5055058;28;20096;-54
2021/11/19 08:53:45;;;;;;;;;;;;;;;18.96;100.00;102774.28;5055286;28;19916;-54
2021/11/19 08:56:10;;;;;;;;;;;;;;;19.29;100.00;102776.25;5054958;28;19980;-54
2021/11/19 08:58:38;;;;;;;;;;;;;;;19.43;100.00;102774.38;5055090;28;19924;-55
2021/11/19 09:01:04;;;;;;;;;;;;;;;19.76;100.00;102774.38;5054461;28;19917;-53
2021/11/19 09:03:30;;;;;;;;;;;;;;;19.46;100.00;102773.97;5054901;28;20014;-56
2021/11/19 09:05:55;;;;;;;;;;;;;;;19.46;100.00;102776.69;5055152;28;20444;-54
2021/11/19 09:08:22;;;;;;;;;;;;;;;19.91;100.00;102776.91;5055471;28;20365;-52
2021/11/19 09:10:50;;;;;;;;;;;;;;;19.76;100.00;102782.53;5087716;28;20007;-55
2021/11/19 09:13:16;;;;;;;;;;;;;;;19.96;100.00;102778.13;5055145;28;19913;-50
2021/11/19 09:15:42;;;;;;;;;;;;;;;20.28;100.00;102778.25;5087602;28;19973;-50
2021/11/19 09:18:17;;;;;;;;;;;;;;;19.46;100.00;102785.66;5053338;28;20305;-52
2021/11/19 09:21:01;;;;;;;;;;;;;;;19.66;100.00;102784.81;5070199;28;19917;-51
2021/11/19 09:23:28;;;;;;;;;;;;;;;19.84;100.00;102781.47;5054688;28;19916;-53
2021/11/19 09:25:56;;;;;;;;;;;;;;;20.88;100.00;102788.09;5087008;28;19923;-54
2021/11/19 09:28:22;;;;;;;;;;;;;;;21.28;100.00;102782.41;5055055;28;19917;-55
2021/11/19 09:30:51;;;;;;;;;;;;;;;20.96;100.00;102782.38;5054481;28;19917;-55
2021/11/19 09:33:18;;;;;;;;;;;;;;;20.98;100.00;102788.44;5087597;28;19924;-53
2021/11/19 09:35:43;;;;;;;;;;;;;;;20.67;100.00;102776.44;5054353;28;19923;-55
2021/11/19 09:38:11;;;;;;;;;;;;;;;20.22;100.00;102787.28;5087151;28;20395;-52
2021/11/19 09:40:45;;;;;;;;;;;;;;;19.84;100.00;102786.06;5069732;28;19975;-53
2021/11/19 09:43:19;;;;;;;;;;;;;;;20.11;100.00;102786.03;5052860;28;19924;-57
2021/11/19 09:45:54;;;;;;;;;;;;;;;21.02;100.00;102786.13;5054879;28;19964;-57
2021/11/19 09:48:38;;;;;;;;;;;;;;;20.63;100.00;102789.63;5086654;28;19916;-55
2021/11/19 09:51:22;;;;;;;;;;;;;;;20.55;100.00;102791.78;5086285;28;19924;-49
2021/11/19 09:53:57;;;;;;;;;;;;;;;19.78;100.00;102806.72;5086972;28;19917;-56
2021/11/19 09:56:22;;;;;;;;;;;;;;;20.52;100.00;102786.75;5054907;28;19920;-49
2021/11/19 09:58:52;;;;;;;;;;;;;;;20.55;100.00;102791.78;5054823;28;19936;-54
2021/11/19 10:01:36;;;;;;;;;;;;;;;20.45;100.00;102797.66;5053744;28;19964;-55
2021/11/19 10:04:20;;;;;;;;;;;;;;;20.85;100.00;102788.53;5055053;28;19944;-49
2021/11/19 10:07:01;;;;;;;;;;;;;;;20.49;100.00;102790.75;5087055;28;19927;-52
2021/11/19 10:09:26;;;;;;;;;;;;;;;20.24;100.00;102785.19;5086802;28;20002;-55
2021/11/19 10:11:54;;;;;;;;;;;;;;;20.60;100.00;102789.25;5087019;28;19923;-57
2021/11/19 10:14:23;;;;;;;;;;;;;;;21.09;100.00;102794.25;5053643;28;19939;-59
2021/11/19 10:17:04;;;;;;;;;;;;;;;20.86;100.00;102790.19;5086776;28;19917;-56
2021/11/19 10:19:39;;;;;;;;;;;;;;;21.08;100.00;102800.75;5054141;28;20009;-54
2021/11/19 10:22:04;;;;;;;;;;;;;;;20.57;100.00;102801.38;5054202;28;19970;-54
2021/11/19 10:24:48;;;;;;;;;;;;;;;21.02;100.00;102797.00;5053786;28;20039;-52
2021/11/19 10:27:15;;;;;;;;;;;;;;;20.91;100.00;102799.38;5053656;28;19924;-54
2021/11/19 10:29:45;;;;;;;;;;;;;;;21.34;100.00;102797.03;5069378;28;19917;-56
2021/11/19 10:32:11;;;;;;;;;;;;;;;21.04;100.00;102800.34;5054129;28;19920;-57
2021/11/19 10:34:49;;;;;;;;;;;;;;;21.05;100.00;102794.69;5053530;28;19916;-51
2021/11/19 10:37:26;;;;;;;;;;;;;;;20.91;100.00;102784.94;5053611;28;19979;-51
2021/11/19 10:39:59;;;;;;;;;;;;;;;21.41;100.00;102788.78;5052374;28;19928;-52
2021/11/19 10:42:43;;;;;;;;;;;;;;;21.92;100.00;102804.09;5052473;28;20000;-53
2021/11/19 10:45:27;;;;;;;;;;;;;;;21.52;100.00;102784.50;5069192;28;19916;-55
2021/11/19 10:47:53;;;;;;;;;;;;;;;20.20;100.00;102812.78;5085307;28;19917;-54
2021/11/19 10:50:27;;;;;;;;;;;;;;;20.16;100.00;102800.66;5068597;28;20062;-52
2021/11/19 10:53:11;;;;;;;;;;;;;;;20.19;100.00;102799.41;5052515;28;20250;-53
2021/11/19 10:55:46;;;;;;;;;;;;;;;20.90;100.00;102789.56;5086069;28;19960;-51
2021/11/19 10:58:30;;;;;;;;;;;;;;;20.43;100.00;102800.59;5052809;28;20430;-56
2021/11/19 11:00:58;;;;;;;;;;;;;;;21.99;100.00;102805.91;5052923;28;19920;-50
2021/11/19 11:03:27;;;;;;;;;;;;;;;21.93;100.00;102791.28;5053278;28;19917;-53
2021/11/19 11:06:01;;;;;;;;;;;;;;;23.03;100.00;102796.88;5053038;28;19959;-51
2021/11/19 11:08:31;;;;;;;;;;;;;;;21.54;100.00;102794.13;5051834;28;20376;-56
2021/11/19 11:11:00;;;;;;;;;;;;;;;20.74;100.00;102788.13;5068354;28;20344;-53
2021/11/19 11:13:26;;;;;;;;;;;;;;;20.40;100.00;102784.72;5052637;28;19920;-56
2021/11/19 11:15:53;;;;;;;;;;;;;;;20.54;100.00;102792.84;5052735;28;20333;-54
2021/11/19 11:18:21;;;;;;;;;;;;;;;21.22;100.00;102794.16;5051044;28;19916;-57
2021/11/19 11:20:53;;;;;;;;;;;;;;;21.26;100.00;102795.41;5085237;28;19916;-53
2021/11/19 11:23:34;;;;;;;;;;;;;;;20.68;100.00;102797.13;5051543;28;20360;-54
2021/11/19 11:25:59;;;;;;;;;;;;;;;21.02;100.00;102794.28;5053000;28;20042;-55
2021/11/19 11:28:38;;;;;;;;;;;;;;;20.83;100.00;102796.06;5053393;28;20015;-56
2021/11/19 11:31:20;;;;;;;;;;;;;;;20.47;100.00;102801.81;5052102;28;19917;-54
2021/11/19 11:33:55;;;;;;;;;;;;;;;19.99;100.00;102796.72;5052713;28;20015;-55
2021/11/19 11:36:38;;;;;;;;;;;;;;;20.52;100.00;102794.91;5052776;28;19920;-52
2021/11/19 11:39:04;;;;;;;;;;;;;;;20.33;100.00;102792.06;5052402;28;19917;-53
2021/11/19 11:41:34;;;;;;;;;;;;;;;21.41;100.00;102805.97;5053092;28;19916;-57
2021/11/19 11:44:08;;;;;;;;;;;;;;;21.29;100.00;102794.94;5052714;28;19917;-55
2021/11/19 11:46:35;;;;;;;;;;;;;;;21.40;100.00;102798.84;5052746;28;19916;-58
2021/11/19 11:49:08;;;;;;;;;;;;;;;22.14;100.00;102797.38;5051696;28;19939;-58
2021/11/19 11:51:42;;;;;;;;;;;;;;;22.82;100.00;102790.06;5051989;28;19924;-57
2021/11/19 11:54:17;;;;;;;;;;;;;;;23.65;93.78;102797.66;5052492;28;19974;-57
2021/11/19 11:56:44;;;;;;;;;;;;;;;23.33;95.90;102796.06;5052575;28;19916;-56
2021/11/19 11:59:10;;;;;;;;;;;;;;;23.96;89.76;102805.72;5052790;28;20054;-56
2021/11/19 12:01:44;;;;;;;;;;;;;;;22.41;100.00;102802.50;5053125;28;19964;-57
2021/11/19 12:04:10;;;;;;;;;;;;;;;22.12;100.00;102796.75;5051656;28;19925;-56
2021/11/19 12:07:01;;;;;;;;;;;;;;;22.89;100.00;102793.53;5055909;28;19920;-57
2021/11/19 12:09:28;;;;;;;;;;;;;;;22.42;100.00;102787.81;5081050;28;19917;-56
2021/11/19 12:12:12;;;;;;;;;;;;;;;22.52;100.00;102785.44;5056150;28;19917;-56
2021/11/19 12:14:43;;;;;;;;;;;;;;;22.41;100.00;102789.72;5056092;28;19921;-56
2021/11/19 12:17:16;;;;;;;;;;;;;;;21.70;100.00;102790.03;5056062;28;20391;-59
2021/11/19 12:19:46;;;;;;;;;;;;;;;21.19;100.00;102786.41;5054805;28;19916;-56
2021/11/19 12:22:18;;;;;;;;;;;;;;;22.02;100.00;102786.38;5055984;28;19939;-58
2021/11/19 12:24:51;;;;;;;;;;;;;;;22.25;100.00;102791.16;5056276;28;19994;-55
2021/11/19 12:27:25;;;;;;;;;;;;;;;22.07;100.00;102770.19;5055167;28;19971;-56
2021/11/19 12:29:54;;;;;;;;;;;;;;;21.80;100.00;102784.09;5087852;28;19924;-58
2021/11/19 12:32:25;;;;;;;;;;;;;;;22.02;100.00;102784.47;5055869;28;19950;-57
2021/11/19 12:34:53;;;;;;;;;;;;;;;21.48;100.00;102781.41;5055822;28;19923;-54
2021/11/19 12:37:45;;;;;;;;;;;;;;;21.41;100.00;102773.28;5055926;28;19916;-56
2021/11/19 12:40:31;;;;;;;;;;;;;;;21.78;100.00;102780.75;5038900;28;19983;-55
2021/11/19 12:43:03;;;;;;;;;;;;;;;21.26;100.00;102775.50;5054299;28;19916;-57
2021/11/19 12:45:31;;;;;;;;;;;;;;;21.31;100.00;102776.50;5088406;28;19939;-58